РПИ Днепропетровск

Руководитель РПИ

Andriy Viter*

Инструкторы РПИ
Vladislav Savchuk (Instructor)
Входит в состав
vACC Украина

Диспетчеры РПИ

Диспетчер Рейтинг Допуски *

Аэропорты РПИ

ICAO Город Название Погода
UKHH Харьков Харьков UKHH 161930Z 26004MPS 9999 BKN042 M02/M05 Q1015 NOSIG
UKDD Днепропетровск Днепропетровск UKDD 161930Z 27002MPS 9999 BKN038 M01/M04 Q1018 NOSIG
UKDE Запорожье Запорожье UKDE 161930Z 25002MPS 9999 BKN041 M00/M03 Q1019 NOSIG